Time;durP1;ratioP1;P1;durP2;ratioP2;P2;SDS_P1;SDS_P2;PMS_P1;PMS_P2;Temp;Humidity;BMP_temperature;BMP_pressure;BME280_temperature;BME280_humidity;BME280_pressure;Samples;Min_cycle;Max_cycle;Signal;HPM_P1;HPM_P2
2022/01/07 00:02:17;;;;;;;;;;;20.80;40.80;;;;;;5091492;28;19948;-63
2022/01/07 00:04:43;;;;;;;;;;;20.80;40.80;;;;;;5091942;28;19957;-63
2022/01/07 00:07:09;;;;;;;;;;;20.70;40.80;;;;;;5087477;28;19969;-63
2022/01/07 00:09:36;;;;;;;;;;;20.70;40.60;;;;;;5091240;28;20448;-63
2022/01/07 00:12:02;;;;;;;;;;;20.70;40.70;;;;;;5091990;28;19917;-63
2022/01/07 00:14:28;;;;;;;;;;;20.70;40.70;;;;;;5091251;28;19962;-63
2022/01/07 00:16:53;;;;;;;;;;;20.70;40.50;;;;;;5091856;28;19924;-63
2022/01/07 00:19:19;;;;;;;;;;;20.60;40.30;;;;;;5091750;28;20011;-63
2022/01/07 00:21:45;;;;;;;;;;;20.60;40.20;;;;;;5091263;28;19915;-63
2022/01/07 00:24:10;;;;;;;;;;;20.60;40.30;;;;;;5090169;28;20388;-63
2022/01/07 00:26:36;;;;;;;;;;;20.60;40.40;;;;;;5090872;28;19920;-63
2022/01/07 00:29:01;;;;;;;;;;;20.60;40.30;;;;;;5087379;28;19955;-63
2022/01/07 00:31:26;;;;;;;;;;;20.60;40.30;;;;;;5083917;28;20360;-64
2022/01/07 00:33:52;;;;;;;;;;;20.60;40.20;;;;;;5083015;28;19919;-63
2022/01/07 00:36:17;;;;;;;;;;;20.60;40.20;;;;;;5083630;28;19917;-63
2022/01/07 00:38:43;;;;;;;;;;;20.60;40.70;;;;;;5081100;28;19920;-63
2022/01/07 00:41:08;;;;;;;;;;;20.50;40.40;;;;;;5082836;28;19912;-63
2022/01/07 00:43:34;;;;;;;;;;;20.60;40.10;;;;;;5084270;28;19988;-63
2022/01/07 00:45:59;;;;;;;;;;;20.50;40.30;;;;;;5085045;28;20083;-63
2022/01/07 00:48:25;;;;;;;;;;;20.50;40.20;;;;;;5084219;28;19942;-63
2022/01/07 00:50:50;;;;;;;;;;;20.50;40.20;;;;;;5084415;28;19916;-63
2022/01/07 00:53:16;;;;;;;;;;;20.50;40.20;;;;;;5066955;28;19916;-63
2022/01/07 00:55:41;;;;;;;;;;;20.50;40.30;;;;;;5083785;28;20342;-63
2022/01/07 00:58:07;;;;;;;;;;;20.50;40.30;;;;;;5085459;28;20402;-63
2022/01/07 01:00:32;;;;;;;;;;;20.50;40.30;;;;;;5080311;28;20003;-63
2022/01/07 01:02:59;;;;;;;;;;;20.50;40.40;;;;;;5083715;28;19913;-63
2022/01/07 01:05:24;;;;;;;;;;;20.50;40.30;;;;;;5085507;28;19916;-63
2022/01/07 01:07:50;;;;;;;;;;;20.50;40.50;;;;;;5080631;28;20427;-63
2022/01/07 01:10:16;;;;;;;;;;;20.40;40.40;;;;;;5082740;28;19916;-63
2022/01/07 01:12:42;;;;;;;;;;;20.40;40.40;;;;;;5082384;28;19962;-63
2022/01/07 01:15:08;;;;;;;;;;;20.50;40.40;;;;;;5084023;28;19916;-63
2022/01/07 01:17:34;;;;;;;;;;;20.40;40.60;;;;;;5084051;28;19924;-64
2022/01/07 01:19:59;;;;;;;;;;;20.40;40.40;;;;;;5081903;28;20373;-63
2022/01/07 01:22:24;;;;;;;;;;;20.40;40.50;;;;;;5083410;28;19916;-63
2022/01/07 01:24:50;;;;;;;;;;;20.40;40.40;;;;;;5082281;28;20389;-63
2022/01/07 01:27:15;;;;;;;;;;;20.40;40.30;;;;;;5085000;28;19912;-63
2022/01/07 01:29:41;;;;;;;;;;;20.40;40.30;;;;;;5084279;28;19952;-63
2022/01/07 01:32:06;;;;;;;;;;;20.50;40.40;;;;;;5082735;28;19916;-63
2022/01/07 01:34:32;;;;;;;;;;;20.40;40.40;;;;;;5086152;28;20372;-63
2022/01/07 01:36:57;;;;;;;;;;;20.40;40.30;;;;;;5082708;28;19920;-63
2022/01/07 01:39:23;;;;;;;;;;;20.40;40.50;;;;;;5083123;28;19927;-63
2022/01/07 01:41:48;;;;;;;;;;;20.40;40.50;;;;;;5083523;28;20019;-63
2022/01/07 01:44:14;;;;;;;;;;;20.40;40.60;;;;;;5076102;28;19960;-63
2022/01/07 01:46:39;;;;;;;;;;;20.40;40.30;;;;;;5079581;28;20269;-63
2022/01/07 01:49:05;;;;;;;;;;;20.40;40.40;;;;;;5087447;28;19912;-64
2022/01/07 01:51:30;;;;;;;;;;;20.40;40.50;;;;;;5088151;28;19912;-63
2022/01/07 01:53:56;;;;;;;;;;;20.40;40.50;;;;;;5083163;28;19912;-63
2022/01/07 01:56:21;;;;;;;;;;;20.40;40.50;;;;;;5088852;28;19995;-63
2022/01/07 01:58:47;;;;;;;;;;;20.30;40.50;;;;;;5084277;28;19919;-63
2022/01/07 02:01:12;;;;;;;;;;;20.30;40.30;;;;;;5087120;28;20304;-63
2022/01/07 02:03:38;;;;;;;;;;;20.30;40.40;;;;;;5088428;28;19912;-63
2022/01/07 02:06:03;;;;;;;;;;;20.40;40.40;;;;;;5087438;28;19916;-63
2022/01/07 02:08:29;;;;;;;;;;;20.40;40.50;;;;;;5088824;28;20300;-64
2022/01/07 02:10:55;;;;;;;;;;;20.40;40.60;;;;;;5084850;28;19916;-63
2022/01/07 02:13:20;;;;;;;;;;;20.40;40.50;;;;;;5086320;28;19923;-63
2022/01/07 02:15:46;;;;;;;;;;;20.30;40.50;;;;;;5082300;28;19920;-63
2022/01/07 02:18:11;;;;;;;;;;;20.30;40.50;;;;;;5086064;28;19968;-64
2022/01/07 02:20:37;;;;;;;;;;;20.30;40.60;;;;;;5086589;28;20002;-63
2022/01/07 02:23:02;;;;;;;;;;;20.30;40.60;;;;;;5086541;28;19995;-63
2022/01/07 02:25:28;;;;;;;;;;;20.30;40.70;;;;;;5088270;28;19912;-63
2022/01/07 02:27:53;;;;;;;;;;;20.30;40.40;;;;;;5085635;28;19927;-63
2022/01/07 02:30:23;;;;;;;;;;;20.30;40.40;;;;;;5087478;28;19912;-63
2022/01/07 02:32:48;;;;;;;;;;;20.40;40.40;;;;;;5118553;27;19912;-63
2022/01/07 02:35:14;;;;;;;;;;;20.40;40.30;;;;;;5087423;28;19916;-63
2022/01/07 02:37:39;;;;;;;;;;;20.40;40.10;;;;;;5085103;28;19944;-63
2022/01/07 02:40:05;;;;;;;;;;;20.50;40.00;;;;;;5084551;28;19999;-63
2022/01/07 02:42:31;;;;;;;;;;;20.60;39.90;;;;;;5083793;28;19916;-63
2022/01/07 02:44:56;;;;;;;;;;;20.70;39.90;;;;;;5086713;28;19912;-63
2022/01/07 02:47:22;;;;;;;;;;;20.70;39.80;;;;;;5085362;28;19918;-63
2022/01/07 02:49:48;;;;;;;;;;;20.80;39.60;;;;;;5084330;28;19912;-63
2022/01/07 02:52:13;;;;;;;;;;;20.80;39.60;;;;;;5085384;28;19926;-64
2022/01/07 02:54:39;;;;;;;;;;;20.90;39.70;;;;;;5084378;28;19913;-64
2022/01/07 02:57:04;;;;;;;;;;;20.90;39.50;;;;;;5081426;28;19912;-64
2022/01/07 02:59:30;;;;;;;;;;;20.90;39.50;;;;;;5087305;28;20021;-63
2022/01/07 03:01:55;;;;;;;;;;;20.90;39.30;;;;;;5084394;28;19915;-63
2022/01/07 03:04:23;;;;;;;;;;;20.90;39.10;;;;;;5088214;28;19934;-64
2022/01/07 03:06:48;;;;;;;;;;;20.90;39.10;;;;;;5067277;28;19918;-63
2022/01/07 03:09:14;;;;;;;;;;;20.90;39.20;;;;;;5083052;28;19916;-63
2022/01/07 03:11:39;;;;;;;;;;;20.80;39.20;;;;;;5086335;28;19912;-64
2022/01/07 03:14:05;;;;;;;;;;;20.80;39.20;;;;;;5082573;28;20343;-64
2022/01/07 03:16:30;;;;;;;;;;;20.80;39.20;;;;;;5084848;28;19920;-63
2022/01/07 03:18:56;;;;;;;;;;;20.80;39.20;;;;;;5084720;28;20441;-64
2022/01/07 03:21:21;;;;;;;;;;;20.80;39.20;;;;;;5084125;28;20003;-63
2022/01/07 03:23:47;;;;;;;;;;;20.80;39.30;;;;;;5082904;28;19908;-63
2022/01/07 03:26:12;;;;;;;;;;;20.70;39.30;;;;;;5085888;28;19912;-63
2022/01/07 03:28:38;;;;;;;;;;;20.70;39.30;;;;;;5085188;28;19913;-63
2022/01/07 03:31:04;;;;;;;;;;;20.70;39.30;;;;;;5083570;28;20006;-63
2022/01/07 03:33:30;;;;;;;;;;;20.70;39.30;;;;;;5085314;28;20003;-64
2022/01/07 03:35:55;;;;;;;;;;;20.70;39.30;;;;;;5085304;28;19957;-63
2022/01/07 03:38:21;;;;;;;;;;;20.70;39.40;;;;;;5082498;28;19998;-63
2022/01/07 03:40:47;;;;;;;;;;;20.70;39.40;;;;;;5082669;28;20373;-63
2022/01/07 03:43:12;;;;;;;;;;;20.70;39.40;;;;;;5086869;28;19912;-63
2022/01/07 03:45:38;;;;;;;;;;;20.70;39.50;;;;;;5084627;28;19913;-63
2022/01/07 03:48:03;;;;;;;;;;;20.70;39.50;;;;;;5083822;28;20387;-64
2022/01/07 03:50:29;;;;;;;;;;;20.70;39.50;;;;;;5085218;28;20396;-63
2022/01/07 03:52:54;;;;;;;;;;;20.70;39.40;;;;;;5082616;28;19919;-64
2022/01/07 03:55:21;;;;;;;;;;;20.70;39.50;;;;;;5085172;28;19920;-64
2022/01/07 03:57:46;;;;;;;;;;;20.70;39.40;;;;;;5084021;28;20011;-64
2022/01/07 04:00:13;;;;;;;;;;;20.70;39.50;;;;;;5086974;28;20057;-63
2022/01/07 04:02:39;;;;;;;;;;;20.70;39.50;;;;;;5084844;28;19930;-63
2022/01/07 04:05:05;;;;;;;;;;;20.70;39.50;;;;;;5085255;28;19998;-63
2022/01/07 04:07:33;;;;;;;;;;;20.70;39.50;;;;;;5084096;28;20365;-63
2022/01/07 04:09:59;;;;;;;;;;;20.70;39.60;;;;;;5085270;28;20376;-63
2022/01/07 04:12:25;;;;;;;;;;;20.70;39.60;;;;;;5084686;28;19920;-63
2022/01/07 04:14:59;;;;;;;;;;;20.60;39.70;;;;;;5116507;27;20455;-63
2022/01/07 04:17:25;;;;;;;;;;;20.60;39.70;;;;;;5081889;28;19912;-63
2022/01/07 04:19:50;;;;;;;;;;;20.60;39.60;;;;;;5085354;28;19938;-64
2022/01/07 04:22:16;;;;;;;;;;;20.50;39.60;;;;;;5083605;28;20022;-63
2022/01/07 04:24:41;;;;;;;;;;;20.50;39.40;;;;;;5083819;28;19971;-63
2022/01/07 04:27:07;;;;;;;;;;;20.50;39.50;;;;;;5083644;28;19920;-63
2022/01/07 04:29:32;;;;;;;;;;;20.40;39.60;;;;;;5083930;28;19911;-63
2022/01/07 04:31:58;;;;;;;;;;;20.50;39.60;;;;;;5084361;28;20367;-63
2022/01/07 04:34:23;;;;;;;;;;;20.50;39.60;;;;;;5082736;28;20338;-63
2022/01/07 04:36:49;;;;;;;;;;;20.50;39.70;;;;;;5083043;28;20351;-63
2022/01/07 04:39:14;;;;;;;;;;;20.50;39.70;;;;;;5083171;28;19916;-64
2022/01/07 04:41:40;;;;;;;;;;;20.50;39.80;;;;;;5083647;28;19912;-64
2022/01/07 04:44:05;;;;;;;;;;;20.50;39.90;;;;;;5085265;28;20015;-63
2022/01/07 04:46:31;;;;;;;;;;;20.50;39.80;;;;;;5082727;28;19923;-64
2022/01/07 04:48:56;;;;;;;;;;;20.50;39.70;;;;;;5067908;28;19951;-63
2022/01/07 04:51:21;;;;;;;;;;;20.50;39.70;;;;;;5083934;28;19913;-64
2022/01/07 04:53:47;;;;;;;;;;;20.50;39.90;;;;;;5082838;28;20003;-64
2022/01/07 04:56:12;;;;;;;;;;;20.60;39.60;;;;;;5086493;28;19955;-63
2022/01/07 04:58:38;;;;;;;;;;;20.60;39.60;;;;;;5083128;28;20364;-63
2022/01/07 05:01:03;;;;;;;;;;;20.60;39.80;;;;;;5086417;28;20308;-63
2022/01/07 05:03:29;;;;;;;;;;;20.60;39.80;;;;;;5081570;28;19981;-63
2022/01/07 05:06:06;;;;;;;;;;;20.60;39.60;;;;;;5083395;28;19916;-63
2022/01/07 05:08:32;;;;;;;;;;;20.60;39.80;;;;;;5078745;28;19912;-63
2022/01/07 05:10:57;;;;;;;;;;;20.60;39.50;;;;;;5081717;28;19916;-63
2022/01/07 05:13:23;;;;;;;;;;;20.60;39.70;;;;;;5083615;28;19958;-63
2022/01/07 05:15:48;;;;;;;;;;;20.50;39.60;;;;;;5082999;28;20049;-63
2022/01/07 05:18:13;;;;;;;;;;;20.60;39.50;;;;;;5083777;28;19951;-63
2022/01/07 05:20:39;;;;;;;;;;;20.50;39.40;;;;;;5086153;28;20292;-63
2022/01/07 05:23:04;;;;;;;;;;;20.50;39.60;;;;;;5082121;28;20547;-63
2022/01/07 05:25:34;;;;;;;;;;;20.50;39.40;;;;;;5087800;28;19916;-63
2022/01/07 05:27:59;;;;;;;;;;;20.50;39.50;;;;;;5090117;28;19920;-63
2022/01/07 05:30:25;;;;;;;;;;;20.50;39.40;;;;;;5085872;28;19920;-64
2022/01/07 05:32:50;;;;;;;;;;;20.50;39.40;;;;;;5083369;28;19916;-63
2022/01/07 05:35:16;;;;;;;;;;;20.50;39.40;;;;;;5086370;28;20502;-63
2022/01/07 05:37:41;;;;;;;;;;;20.50;39.30;;;;;;5084875;28;19927;-63
2022/01/07 05:40:07;;;;;;;;;;;20.50;39.40;;;;;;5088551;28;19918;-63
2022/01/07 05:42:32;;;;;;;;;;;20.50;39.40;;;;;;5087148;28;19919;-63
2022/01/07 05:44:58;;;;;;;;;;;20.50;39.40;;;;;;5089555;28;19957;-64
2022/01/07 05:47:24;;;;;;;;;;;20.50;39.30;;;;;;5082151;28;19916;-64
2022/01/07 05:49:49;;;;;;;;;;;20.50;39.60;;;;;;5085832;28;20296;-63
2022/01/07 05:52:14;;;;;;;;;;;20.50;39.30;;;;;;5085680;28;20411;-63
2022/01/07 05:54:40;;;;;;;;;;;20.50;39.30;;;;;;5086752;28;20297;-63
2022/01/07 05:57:06;;;;;;;;;;;20.50;39.10;;;;;;5088175;28;19920;-63
2022/01/07 05:59:32;;;;;;;;;;;20.50;39.40;;;;;;5085600;28;19916;-63
2022/01/07 06:01:57;;;;;;;;;;;20.50;39.30;;;;;;5086893;28;19919;-65
2022/01/07 06:04:23;;;;;;;;;;;20.40;39.20;;;;;;5086096;28;20034;-63
2022/01/07 06:06:48;;;;;;;;;;;20.40;39.10;;;;;;5084041;28;20261;-63
2022/01/07 06:09:14;;;;;;;;;;;20.40;39.30;;;;;;5087662;28;19920;-63
2022/01/07 06:11:39;;;;;;;;;;;20.40;39.10;;;;;;5084013;28;19947;-63
2022/01/07 06:14:04;;;;;;;;;;;20.40;39.20;;;;;;5087092;28;19912;-63
2022/01/07 06:16:30;;;;;;;;;;;20.40;39.20;;;;;;5089634;28;19921;-63
2022/01/07 06:18:58;;;;;;;;;;;20.40;39.20;;;;;;5085834;28;19924;-63
2022/01/07 06:21:24;;;;;;;;;;;20.40;39.30;;;;;;5085963;28;19912;-63
2022/01/07 06:23:49;;;;;;;;;;;20.50;39.40;;;;;;5085840;28;19912;-64
2022/01/07 06:26:16;;;;;;;;;;;20.40;39.40;;;;;;5089141;28;19935;-63
2022/01/07 06:28:41;;;;;;;;;;;20.40;39.50;;;;;;5084750;28;19916;-63
2022/01/07 06:31:07;;;;;;;;;;;20.40;39.30;;;;;;5085146;28;19919;-63
2022/01/07 06:33:32;;;;;;;;;;;20.40;39.30;;;;;;5086237;28;20249;-63
2022/01/07 06:35:58;;;;;;;;;;;20.40;39.30;;;;;;5086253;28;19935;-63
2022/01/07 06:38:23;;;;;;;;;;;20.40;39.30;;;;;;5083349;28;20162;-63
2022/01/07 06:40:49;;;;;;;;;;;20.50;39.30;;;;;;5083352;28;19960;-64
2022/01/07 06:43:14;;;;;;;;;;;20.50;39.30;;;;;;5087343;28;19923;-63
2022/01/07 06:45:39;;;;;;;;;;;20.50;39.10;;;;;;5085833;28;20395;-63
2022/01/07 06:48:05;;;;;;;;;;;20.50;39.20;;;;;;5085447;28;20448;-63
2022/01/07 06:50:30;;;;;;;;;;;20.50;39.40;;;;;;5087932;28;20388;-63
2022/01/07 06:52:56;;;;;;;;;;;20.50;39.40;;;;;;5081803;28;19916;-63
2022/01/07 06:55:21;;;;;;;;;;;20.50;39.30;;;;;;5086412;28;19927;-63
2022/01/07 06:57:47;;;;;;;;;;;20.50;39.30;;;;;;5086123;28;19919;-63
2022/01/07 07:00:12;;;;;;;;;;;20.40;39.50;;;;;;5086220;28;19912;-63
2022/01/07 07:02:38;;;;;;;;;;;20.40;39.30;;;;;;5084507;28;19919;-63
2022/01/07 07:05:03;;;;;;;;;;;20.40;39.30;;;;;;5084069;28;20438;-63
2022/01/07 07:07:29;;;;;;;;;;;20.40;39.30;;;;;;5087182;28;19919;-63
2022/01/07 07:09:54;;;;;;;;;;;20.40;39.30;;;;;;5082954;28;19950;-63
2022/01/07 07:12:20;;;;;;;;;;;20.40;39.30;;;;;;5087430;28;19920;-63
2022/01/07 07:14:45;;;;;;;;;;;20.40;39.30;;;;;;5084197;28;20296;-63
2022/01/07 07:17:12;;;;;;;;;;;20.40;39.30;;;;;;5085742;28;20343;-63
2022/01/07 07:19:37;;;;;;;;;;;20.40;39.30;;;;;;5086277;28;19927;-63
2022/01/07 07:22:03;;;;;;;;;;;20.40;39.30;;;;;;5082208;28;19915;-63
2022/01/07 07:24:28;;;;;;;;;;;20.40;39.30;;;;;;5081406;28;19958;-63
2022/01/07 07:26:54;;;;;;;;;;;20.40;39.40;;;;;;5085827;28;19916;-63
2022/01/07 07:29:19;;;;;;;;;;;20.40;39.30;;;;;;5082273;28;19920;-63
2022/01/07 07:31:49;;;;;;;;;;;20.40;39.20;;;;;;5087269;28;19978;-63
2022/01/07 07:36:44;;;;;;;;;;;20.40;39.30;;;;;;5083535;28;19961;-63
2022/01/07 07:39:10;;;;;;;;;;;20.40;39.30;;;;;;5083390;28;19916;-63
2022/01/07 07:41:36;;;;;;;;;;;20.40;39.50;;;;;;5082928;28;19923;-63
2022/01/07 07:44:01;;;;;;;;;;;20.40;39.30;;;;;;5087015;28;20285;-63
2022/01/07 07:46:28;;;;;;;;;;;20.40;39.30;;;;;;5080613;28;19912;-63
2022/01/07 07:48:53;;;;;;;;;;;20.40;40.10;;;;;;5081409;28;19916;-63
2022/01/07 07:51:19;;;;;;;;;;;20.40;39.30;;;;;;5084648;28;20019;-63
2022/01/07 07:53:44;;;;;;;;;;;20.40;39.30;;;;;;5081391;28;20008;-63
2022/01/07 07:56:11;;;;;;;;;;;20.30;39.30;;;;;;5070646;28;19919;-63
2022/01/07 07:58:36;;;;;;;;;;;20.30;39.20;;;;;;5081689;28;19935;-63
2022/01/07 08:01:01;;;;;;;;;;;20.30;39.90;;;;;;5083131;28;19912;-63
2022/01/07 08:03:27;;;;;;;;;;;20.40;39.40;;;;;;5090113;28;19916;-63
2022/01/07 08:05:52;;;;;;;;;;;20.30;39.40;;;;;;5092214;28;20124;-63
2022/01/07 08:08:18;;;;;;;;;;;20.30;39.20;;;;;;5091524;28;19912;-63
2022/01/07 08:10:50;;;;;;;;;;;20.30;39.20;;;;;;5092161;28;19912;-63
2022/01/07 08:13:28;;;;;;;;;;;20.30;39.20;;;;;;5090900;28;19916;-63
2022/01/07 08:16:05;;;;;;;;;;;20.30;39.20;;;;;;5090283;28;19920;-64
2022/01/07 08:18:33;;;;;;;;;;;20.40;39.30;;;;;;5091147;28;21223;-64
2022/01/07 08:21:00;;;;;;;;;;;20.30;39.30;;;;;;5090682;28;19912;-63
2022/01/07 08:23:25;;;;;;;;;;;20.30;39.20;;;;;;5091448;28;19912;-63
2022/01/07 08:25:50;;;;;;;;;;;20.30;39.20;;;;;;5090571;28;20261;-63
2022/01/07 08:28:17;;;;;;;;;;;20.30;39.20;;;;;;5091829;28;19931;-63
2022/01/07 08:31:24;;;;;;;;;;;20.30;39.20;;;;;;5124182;27;19912;-63
2022/01/07 08:36:31;;;;;;;;;;;20.30;39.20;;;;;;5090037;28;20607;-63
2022/01/07 08:38:56;;;;;;;;;;;20.40;39.30;;;;;;5090766;28;20288;-63
2022/01/07 08:41:23;;;;;;;;;;;20.30;39.30;;;;;;5090885;28;19914;-63
2022/01/07 08:43:49;;;;;;;;;;;20.30;39.30;;;;;;5091171;28;19947;-64
2022/01/07 08:46:14;;;;;;;;;;;20.30;39.30;;;;;;5090483;28;19927;-63
2022/01/07 08:48:40;;;;;;;;;;;20.30;39.30;;;;;;5090665;28;20359;-63
2022/01/07 08:51:05;;;;;;;;;;;20.30;39.30;;;;;;5091969;28;20382;-63
2022/01/07 08:53:31;;;;;;;;;;;20.30;39.50;;;;;;5089573;28;19916;-63
2022/01/07 08:55:56;;;;;;;;;;;20.30;39.50;;;;;;5090260;28;20117;-63
2022/01/07 08:58:22;;;;;;;;;;;20.30;39.60;;;;;;5090181;28;20364;-64
2022/01/07 09:00:47;;;;;;;;;;;20.30;39.50;;;;;;5080933;28;19912;-63
2022/01/07 09:03:13;;;;;;;;;;;20.30;39.40;;;;;;5081620;28;19912;-63
2022/01/07 09:05:38;;;;;;;;;;;20.30;39.50;;;;;;5084710;28;19912;-63
2022/01/07 09:08:07;;;;;;;;;;;20.30;39.50;;;;;;5083487;28;19970;-63
2022/01/07 09:10:32;;;;;;;;;;;20.30;39.40;;;;;;5082711;28;19913;-63
2022/01/07 09:12:58;;;;;;;;;;;20.30;39.40;;;;;;5069521;28;19965;-63
2022/01/07 09:15:23;;;;;;;;;;;20.30;39.30;;;;;;5077689;28;19916;-64
2022/01/07 09:17:49;;;;;;;;;;;20.30;39.50;;;;;;5085269;28;19924;-64
2022/01/07 09:20:15;;;;;;;;;;;20.20;39.40;;;;;;5082466;28;19927;-64
2022/01/07 09:22:40;;;;;;;;;;;20.20;39.40;;;;;;5078553;28;19917;-64
2022/01/07 09:25:06;;;;;;;;;;;20.20;39.60;;;;;;5085429;28;20327;-63
2022/01/07 09:27:32;;;;;;;;;;;20.20;39.50;;;;;;5082015;28;20321;-63
2022/01/07 09:29:57;;;;;;;;;;;20.20;39.40;;;;;;5083470;28;20007;-63
2022/01/07 09:32:22;;;;;;;;;;;20.20;39.40;;;;;;5084004;28;19920;-63
2022/01/07 09:34:48;;;;;;;;;;;20.20;39.40;;;;;;5083791;28;20025;-63
2022/01/07 09:37:13;;;;;;;;;;;20.20;39.30;;;;;;5082934;28;19942;-63
2022/01/07 09:39:39;;;;;;;;;;;20.20;39.30;;;;;;5082783;28;19917;-63
2022/01/07 09:42:04;;;;;;;;;;;20.20;39.30;;;;;;5084340;28;20009;-63
2022/01/07 09:44:30;;;;;;;;;;;20.20;39.40;;;;;;5079970;28;19912;-63
2022/01/07 09:46:55;;;;;;;;;;;20.20;39.40;;;;;;5081747;28;19916;-64
2022/01/07 09:49:21;;;;;;;;;;;20.30;39.80;;;;;;5077695;28;19920;-64
2022/01/07 09:51:46;;;;;;;;;;;20.30;39.80;;;;;;5095614;28;20280;-63
2022/01/07 09:54:12;;;;;;;;;;;20.50;39.60;;;;;;5087069;28;19996;-64
2022/01/07 09:56:37;;;;;;;;;;;20.70;39.50;;;;;;5096214;28;19961;-64
2022/01/07 09:59:05;;;;;;;;;;;20.90;39.30;;;;;;5088222;28;20716;-64
2022/01/07 10:01:57;;;;;;;;;;;21.00;39.00;;;;;;5089627;28;19919;-64
2022/01/07 10:04:30;;;;;;;;;;;21.10;38.90;;;;;;5107399;27;19920;-64
2022/01/07 10:07:09;;;;;;;;;;;21.30;38.80;;;;;;5088416;28;19973;-63
2022/01/07 10:09:35;;;;;;;;;;;21.30;38.70;;;;;;5093296;28;20432;-64
2022/01/07 10:12:00;;;;;;;;;;;21.40;38.70;;;;;;5091888;28;19916;-65
2022/01/07 10:14:26;;;;;;;;;;;21.40;38.70;;;;;;5085758;28;19942;-64
2022/01/07 10:16:52;;;;;;;;;;;21.50;38.60;;;;;;5094180;28;19908;-64
2022/01/07 10:19:28;;;;;;;;;;;21.50;38.50;;;;;;5090748;28;19920;-64
2022/01/07 10:21:57;;;;;;;;;;;21.60;38.50;;;;;;5093211;28;19912;-64
2022/01/07 10:24:22;;;;;;;;;;;21.60;38.30;;;;;;5072111;28;20003;-65
2022/01/07 10:27:06;;;;;;;;;;;21.70;38.40;;;;;;5085720;28;20012;-64
2022/01/07 10:29:33;;;;;;;;;;;21.70;38.30;;;;;;5093262;28;20291;-64
2022/01/07 10:32:17;;;;;;;;;;;21.70;38.20;;;;;;5092810;28;20337;-64
2022/01/07 10:34:59;;;;;;;;;;;21.70;38.30;;;;;;5073525;28;19912;-65
2022/01/07 10:37:25;;;;;;;;;;;21.70;38.20;;;;;;5085234;28;19916;-64
2022/01/07 10:39:50;;;;;;;;;;;21.80;38.30;;;;;;5093639;28;19946;-64
2022/01/07 10:42:21;;;;;;;;;;;21.70;38.10;;;;;;5093179;28;19916;-64
2022/01/07 10:45:05;;;;;;;;;;;21.80;38.80;;;;;;5092778;28;19951;-64
2022/01/07 10:47:30;;;;;;;;;;;21.80;38.10;;;;;;5091730;28;19955;-64
2022/01/07 10:50:14;;;;;;;;;;;21.90;38.40;;;;;;5094297;28;19958;-64
2022/01/07 10:52:40;;;;;;;;;;;21.90;38.40;;;;;;5090743;28;19919;-64
2022/01/07 10:55:13;;;;;;;;;;;21.90;38.50;;;;;;5090637;28;19916;-64
2022/01/07 10:57:41;;;;;;;;;;;21.90;39.20;;;;;;5092779;28;19912;-64
2022/01/07 11:00:08;;;;;;;;;;;21.90;38.40;;;;;;5091725;28;19948;-64
2022/01/07 11:02:33;;;;;;;;;;;21.90;38.40;;;;;;5091698;28;19916;-64
2022/01/07 11:04:59;;;;;;;;;;;21.90;38.50;;;;;;5085597;28;20364;-64
2022/01/07 11:07:24;;;;;;;;;;;21.90;38.50;;;;;;5121169;27;20296;-64
2022/01/07 11:09:50;;;;;;;;;;;21.90;38.50;;;;;;5092885;28;20010;-64
2022/01/07 11:12:16;;;;;;;;;;;21.90;38.50;;;;;;5091962;28;19923;-64
2022/01/07 11:14:42;;;;;;;;;;;21.90;38.50;;;;;;5091663;28;19923;-64
2022/01/07 11:17:10;;;;;;;;;;;22.00;38.60;;;;;;5092365;28;19912;-64
2022/01/07 11:19:40;;;;;;;;;;;22.00;38.50;;;;;;5093332;28;20334;-64
2022/01/07 11:22:07;;;;;;;;;;;22.00;38.50;;;;;;5090499;28;19927;-64
2022/01/07 11:24:39;;;;;;;;;;;22.00;38.40;;;;;;5088766;28;19937;-64
2022/01/07 11:27:05;;;;;;;;;;;22.00;38.40;;;;;;5090258;28;19994;-64
2022/01/07 11:29:31;;;;;;;;;;;22.00;38.40;;;;;;5089192;28;19923;-64
2022/01/07 11:32:15;;;;;;;;;;;22.00;38.40;;;;;;5092594;28;20265;-65
2022/01/07 11:34:40;;;;;;;;;;;22.10;38.40;;;;;;5092567;28;19916;-64
2022/01/07 11:37:26;;;;;;;;;;;22.10;38.40;;;;;;5091330;28;19912;-64
2022/01/07 11:39:52;;;;;;;;;;;22.10;38.40;;;;;;5090287;28;20018;-64
2022/01/07 11:42:36;;;;;;;;;;;22.10;38.40;;;;;;5082319;28;19987;-65
2022/01/07 11:45:23;;;;;;;;;;;22.10;38.30;;;;;;5107634;28;19912;-64
2022/01/07 11:47:49;;;;;;;;;;;22.10;38.30;;;;;;5097293;28;19919;-64
2022/01/07 11:50:14;;;;;;;;;;;22.10;38.20;;;;;;5091612;28;19908;-65
2022/01/07 11:52:40;;;;;;;;;;;22.10;38.20;;;;;;5087470;28;19916;-64
2022/01/07 11:55:26;;;;;;;;;;;22.10;38.20;;;;;;5092554;28;20371;-65
2022/01/07 11:58:03;;;;;;;;;;;22.10;38.20;;;;;;5088890;28;20341;-65
2022/01/07 12:00:47;;;;;;;;;;;22.10;38.20;;;;;;5091761;28;19934;-64
2022/01/07 12:03:13;;;;;;;;;;;22.10;38.20;;;;;;5092281;28;19934;-65
2022/01/07 12:05:38;;;;;;;;;;;22.20;38.20;;;;;;5091661;28;20371;-65
2022/01/07 12:08:03;;;;;;;;;;;22.10;38.00;;;;;;5107382;28;19962;-65
2022/01/07 12:10:29;;;;;;;;;;;22.10;38.10;;;;;;5082965;28;19918;-65
2022/01/07 12:12:58;;;;;;;;;;;22.10;38.20;;;;;;5080599;28;19928;-64
2022/01/07 12:15:24;;;;;;;;;;;22.20;38.20;;;;;;5075982;28;19916;-64
2022/01/07 12:17:49;;;;;;;;;;;22.20;38.20;;;;;;5091679;28;19937;-64
2022/01/07 12:20:33;;;;;;;;;;;22.20;38.10;;;;;;5087480;28;19912;-64
2022/01/07 12:22:59;;;;;;;;;;;22.20;38.10;;;;;;5090763;28;19947;-64
2022/01/07 12:25:25;;;;;;;;;;;22.20;38.20;;;;;;5124280;27;19950;-64
2022/01/07 12:27:58;;;;;;;;;;;22.20;38.10;;;;;;5089769;28;19927;-64
2022/01/07 12:30:23;;;;;;;;;;;22.10;38.00;;;;;;5081173;28;20380;-65
2022/01/07 12:32:49;;;;;;;;;;;22.20;38.20;;;;;;5082004;28;19912;-65
2022/01/07 12:35:14;;;;;;;;;;;22.20;38.20;;;;;;5092297;28;19919;-65
2022/01/07 12:37:40;;;;;;;;;;;22.20;38.20;;;;;;5090298;28;19920;-64
2022/01/07 12:40:06;;;;;;;;;;;22.20;38.30;;;;;;5088058;28;19916;-65
2022/01/07 12:42:36;;;;;;;;;;;22.10;38.10;;;;;;5090925;28;20012;-64
2022/01/07 12:45:01;;;;;;;;;;;22.20;38.20;;;;;;5092629;28;19962;-64
2022/01/07 12:47:27;;;;;;;;;;;22.20;38.20;;;;;;5086278;28;19916;-64
2022/01/07 12:49:59;;;;;;;;;;;22.20;38.10;;;;;;5081181;28;20018;-64
2022/01/07 12:52:32;;;;;;;;;;;22.20;38.10;;;;;;5085336;28;20355;-64
2022/01/07 12:54:59;;;;;;;;;;;22.20;38.10;;;;;;5092052;28;19923;-64
2022/01/07 12:57:26;;;;;;;;;;;22.20;38.30;;;;;;5089719;28;20366;-65
2022/01/07 13:00:08;;;;;;;;;;;22.20;38.20;;;;;;5089885;28;20291;-65
2022/01/07 13:02:33;;;;;;;;;;;22.30;38.40;;;;;;5090158;28;19919;-64
2022/01/07 13:05:09;;;;;;;;;;;22.30;38.50;;;;;;5091294;28;19908;-64
2022/01/07 13:07:38;;;;;;;;;;;22.30;38.50;;;;;;5074639;28;19934;-64
2022/01/07 13:10:04;;;;;;;;;;;22.30;39.10;;;;;;5091359;28;19912;-65
2022/01/07 13:12:29;;;;;;;;;;;22.30;38.40;;;;;;5090982;28;19930;-65
2022/01/07 13:14:55;;;;;;;;;;;22.30;38.30;;;;;;5091733;28;20473;-64
2022/01/07 13:17:22;;;;;;;;;;;22.30;38.30;;;;;;5089046;28;20276;-64
2022/01/07 13:19:49;;;;;;;;;;;22.30;38.30;;;;;;5090483;28;20368;-65
2022/01/07 13:22:15;;;;;;;;;;;22.40;38.30;;;;;;5090712;28;19992;-65
2022/01/07 13:24:40;;;;;;;;;;;22.30;38.30;;;;;;5088757;28;20034;-64
2022/01/07 13:27:06;;;;;;;;;;;22.40;38.40;;;;;;5085346;28;19947;-65
2022/01/07 13:29:32;;;;;;;;;;;22.40;38.40;;;;;;5080969;28;19959;-65
2022/01/07 13:31:58;;;;;;;;;;;22.40;38.50;;;;;;5088966;28;19972;-65
2022/01/07 13:34:24;;;;;;;;;;;22.40;38.50;;;;;;5090423;28;19908;-65
2022/01/07 13:36:49;;;;;;;;;;;22.40;38.50;;;;;;5122215;27;20378;-65
2022/01/07 13:39:23;;;;;;;;;;;22.40;38.60;;;;;;5087646;28;19927;-65
2022/01/07 13:41:59;;;;;;;;;;;22.40;38.50;;;;;;5127293;27;19912;-65
2022/01/07 13:44:25;;;;;;;;;;;22.40;38.50;;;;;;5126412;27;19962;-65
2022/01/07 13:46:55;;;;;;;;;;;22.40;38.60;;;;;;5093591;28;19947;-65
2022/01/07 13:49:21;;;;;;;;;;;22.40;38.60;;;;;;5126829;27;19916;-65
2022/01/07 13:51:51;;;;;;;;;;;22.40;38.60;;;;;;5126313;27;19912;-65
2022/01/07 13:54:17;;;;;;;;;;;22.40;38.50;;;;;;5124574;27;19916;-65
2022/01/07 13:56:59;;;;;;;;;;;22.40;38.60;;;;;;5075432;28;20061;-65
2022/01/07 13:59:24;;;;;;;;;;;22.40;38.60;;;;;;5123562;27;19912;-65
2022/01/07 14:01:57;;;;;;;;;;;22.40;38.50;;;;;;5088479;28;19999;-64
2022/01/07 14:04:38;;;;;;;;;;;22.40;38.50;;;;;;5124250;27;19968;-64
2022/01/07 14:07:18;;;;;;;;;;;22.50;38.50;;;;;;5081998;28;19955;-65
2022/01/07 14:09:58;;;;;;;;;;;22.50;38.60;;;;;;5092203;28;20288;-65
2022/01/07 14:12:24;;;;;;;;;;;22.40;38.50;;;;;;5096003;28;19912;-64
2022/01/07 14:14:50;;;;;;;;;;;22.50;38.50;;;;;;5093392;28;19965;-64
2022/01/07 14:17:15;;;;;;;;;;;22.50;38.50;;;;;;5088616;28;19928;-65
2022/01/07 14:19:56;;;;;;;;;;;22.50;38.50;;;;;;5090779;28;19920;-65
2022/01/07 14:22:22;;;;;;;;;;;22.50;38.50;;;;;;5094344;28;20027;-65